sensor_id;sensor_type;location;lat;lon;timestamp;temperature;humidity
10046;DHT22;5063;50.878;4.742;2022-12-26T00:00:09;12.70;99.90
10046;DHT22;5063;50.878;4.742;2022-12-26T00:02:36;12.60;99.90
10046;DHT22;5063;50.878;4.742;2022-12-26T00:05:02;12.60;99.90
10046;DHT22;5063;50.878;4.742;2022-12-26T00:07:28;12.60;99.90
10046;DHT22;5063;50.878;4.742;2022-12-26T00:09:54;12.60;99.90
10046;DHT22;5063;50.878;4.742;2022-12-26T00:12:19;12.60;99.90
10046;DHT22;5063;50.878;4.742;2022-12-26T00:14:45;12.60;99.90
10046;DHT22;5063;50.878;4.742;2022-12-26T00:17:11;12.60;99.90
10046;DHT22;5063;50.878;4.742;2022-12-26T00:19:36;12.60;99.90
10046;DHT22;5063;50.878;4.742;2022-12-26T00:22:02;12.60;99.90
10046;DHT22;5063;50.878;4.742;2022-12-26T00:24:28;12.50;99.90
10046;DHT22;5063;50.878;4.742;2022-12-26T00:26:54;12.60;99.90
10046;DHT22;5063;50.878;4.742;2022-12-26T00:29:19;12.60;99.90
10046;DHT22;5063;50.878;4.742;2022-12-26T00:31:45;12.50;99.90
10046;DHT22;5063;50.878;4.742;2022-12-26T00:34:11;12.40;99.90
10046;DHT22;5063;50.878;4.742;2022-12-26T00:36:37;12.30;99.90
10046;DHT22;5063;50.878;4.742;2022-12-26T00:39:03;12.20;99.90
10046;DHT22;5063;50.878;4.742;2022-12-26T00:41:29;12.20;99.90
10046;DHT22;5063;50.878;4.742;2022-12-26T00:43:55;12.10;99.90
10046;DHT22;5063;50.878;4.742;2022-12-26T00:46:21;12.10;99.90
10046;DHT22;5063;50.878;4.742;2022-12-26T00:48:46;12.00;99.90
10046;DHT22;5063;50.878;4.742;2022-12-26T00:51:12;12.00;99.90
10046;DHT22;5063;50.878;4.742;2022-12-26T00:53:39;12.00;99.90
10046;DHT22;5063;50.878;4.742;2022-12-26T00:56:05;12.00;99.90
10046;DHT22;5063;50.878;4.742;2022-12-26T00:58:31;11.90;99.90
10046;DHT22;5063;50.878;4.742;2022-12-26T01:01:08;11.90;99.90
10046;DHT22;5063;50.878;4.742;2022-12-26T01:03:34;11.90;99.90
10046;DHT22;5063;50.878;4.742;2022-12-26T01:06:01;11.90;99.90
10046;DHT22;5063;50.878;4.742;2022-12-26T01:08:27;11.80;99.90
10046;DHT22;5063;50.878;4.742;2022-12-26T01:10:53;11.80;99.90
10046;DHT22;5063;50.878;4.742;2022-12-26T01:13:19;11.80;99.90
10046;DHT22;5063;50.878;4.742;2022-12-26T01:15:49;11.80;99.90
10046;DHT22;5063;50.878;4.742;2022-12-26T01:18:15;11.80;99.90
10046;DHT22;5063;50.878;4.742;2022-12-26T01:20:40;11.80;99.90
10046;DHT22;5063;50.878;4.742;2022-12-26T01:23:06;11.80;99.90
10046;DHT22;5063;50.878;4.742;2022-12-26T01:25:32;11.80;99.90
10046;DHT22;5063;50.878;4.742;2022-12-26T01:27:58;11.70;99.90
10046;DHT22;5063;50.878;4.742;2022-12-26T01:30:23;11.70;99.90
10046;DHT22;5063;50.878;4.742;2022-12-26T01:32:49;11.70;99.90
10046;DHT22;5063;50.878;4.742;2022-12-26T01:35:15;11.70;99.90
10046;DHT22;5063;50.878;4.742;2022-12-26T01:37:41;11.60;99.90
10046;DHT22;5063;50.878;4.742;2022-12-26T01:40:07;11.50;99.90
10046;DHT22;5063;50.878;4.742;2022-12-26T01:42:40;11.50;99.90
10046;DHT22;5063;50.878;4.742;2022-12-26T01:45:28;11.40;99.90
10046;DHT22;5063;50.878;4.742;2022-12-26T01:48:01;11.50;99.90
10046;DHT22;5063;50.878;4.742;2022-12-26T01:53:00;11.60;99.90
10046;DHT22;5063;50.878;4.742;2022-12-26T01:55:28;11.70;99.90
10046;DHT22;5063;50.878;4.742;2022-12-26T01:58:06;11.70;99.90
10046;DHT22;5063;50.878;4.742;2022-12-26T02:00:36;11.70;99.90
10046;DHT22;5063;50.878;4.742;2022-12-26T02:03:03;11.60;99.90
10046;DHT22;5063;50.878;4.742;2022-12-26T02:05:48;11.50;99.90
10046;DHT22;5063;50.878;4.742;2022-12-26T02:08:17;11.50;99.90
10046;DHT22;5063;50.878;4.742;2022-12-26T02:10:59;11.50;99.90
10046;DHT22;5063;50.878;4.742;2022-12-26T02:13:27;11.60;99.90
10046;DHT22;5063;50.878;4.742;2022-12-26T02:15:55;11.60;99.90
10046;DHT22;5063;50.878;4.742;2022-12-26T02:18:21;11.60;99.90
10046;DHT22;5063;50.878;4.742;2022-12-26T02:20:53;11.50;99.90
10046;DHT22;5063;50.878;4.742;2022-12-26T02:27:01;11.40;99.90
10046;DHT22;5063;50.878;4.742;2022-12-26T02:32:33;11.40;99.90
10046;DHT22;5063;50.878;4.742;2022-12-26T02:35:40;11.40;99.90
10046;DHT22;5063;50.878;4.742;2022-12-26T02:38:10;11.30;99.90
10046;DHT22;5063;50.878;4.742;2022-12-26T02:55:38;11.20;99.90
10046;DHT22;5063;50.878;4.742;2022-12-26T02:58:29;11.10;99.90
10046;DHT22;5063;50.878;4.742;2022-12-26T03:01:35;11.10;99.90
10046;DHT22;5063;50.878;4.742;2022-12-26T03:04:22;11.00;99.90
10046;DHT22;5063;50.878;4.742;2022-12-26T03:07:29;11.00;99.90
10046;DHT22;5063;50.878;4.742;2022-12-26T03:10:19;11.00;99.90
10046;DHT22;5063;50.878;4.742;2022-12-26T03:13:12;11.00;99.90
10046;DHT22;5063;50.878;4.742;2022-12-26T03:16:06;11.00;99.90
10046;DHT22;5063;50.878;4.742;2022-12-26T03:18:55;11.00;99.90
10046;DHT22;5063;50.878;4.742;2022-12-26T03:21:28;10.90;99.90
10046;DHT22;5063;50.878;4.742;2022-12-26T03:23:55;10.90;99.90
10046;DHT22;5063;50.878;4.742;2022-12-26T03:26:34;10.90;99.90
10046;DHT22;5063;50.878;4.742;2022-12-26T03:29:10;10.90;99.90
10046;DHT22;5063;50.878;4.742;2022-12-26T03:31:56;10.80;99.90
10046;DHT22;5063;50.878;4.742;2022-12-26T03:34:22;10.90;99.90
10046;DHT22;5063;50.878;4.742;2022-12-26T03:43:38;10.90;99.90
10046;DHT22;5063;50.878;4.742;2022-12-26T03:49:11;10.90;99.90
10046;DHT22;5063;50.878;4.742;2022-12-26T04:00:53;11.00;99.90
10046;DHT22;5063;50.878;4.742;2022-12-26T04:03:38;11.00;99.90
10046;DHT22;5063;50.878;4.742;2022-12-26T04:06:29;11.00;99.90
10046;DHT22;5063;50.878;4.742;2022-12-26T04:09:53;11.00;99.90
10046;DHT22;5063;50.878;4.742;2022-12-26T04:12:40;11.00;99.90
10046;DHT22;5063;50.878;4.742;2022-12-26T04:15:47;11.00;99.90
10046;DHT22;5063;50.878;4.742;2022-12-26T04:18:47;11.00;99.90
10046;DHT22;5063;50.878;4.742;2022-12-26T04:21:40;11.00;99.90
10046;DHT22;5063;50.878;4.742;2022-12-26T04:24:29;11.10;99.90
10046;DHT22;5063;50.878;4.742;2022-12-26T04:27:15;11.10;99.90
10046;DHT22;5063;50.878;4.742;2022-12-26T04:30:00;11.10;99.90
10046;DHT22;5063;50.878;4.742;2022-12-26T04:32:47;11.10;99.90
10046;DHT22;5063;50.878;4.742;2022-12-26T04:35:44;11.10;99.90
10046;DHT22;5063;50.878;4.742;2022-12-26T04:38:37;11.20;99.90
10046;DHT22;5063;50.878;4.742;2022-12-26T04:41:24;11.20;99.90
10046;DHT22;5063;50.878;4.742;2022-12-26T04:44:11;11.20;99.90
10046;DHT22;5063;50.878;4.742;2022-12-26T04:46:44;11.10;99.90
10046;DHT22;5063;50.878;4.742;2022-12-26T04:49:12;11.10;99.90
10046;DHT22;5063;50.878;4.742;2022-12-26T04:51:59;11.10;99.90
10046;DHT22;5063;50.878;4.742;2022-12-26T04:54:25;11.00;99.90
10046;DHT22;5063;50.878;4.742;2022-12-26T04:56:51;11.00;99.90
10046;DHT22;5063;50.878;4.742;2022-12-26T04:59:17;11.00;99.90
10046;DHT22;5063;50.878;4.742;2022-12-26T05:01:43;10.90;99.90
10046;DHT22;5063;50.878;4.742;2022-12-26T05:04:27;10.90;99.90
10046;DHT22;5063;50.878;4.742;2022-12-26T05:07:18;11.00;99.90
10046;DHT22;5063;50.878;4.742;2022-12-26T05:10:04;11.00;99.90
10046;DHT22;5063;50.878;4.742;2022-12-26T05:12:30;11.00;99.90
10046;DHT22;5063;50.878;4.742;2022-12-26T05:14:56;10.90;99.90
10046;DHT22;5063;50.878;4.742;2022-12-26T05:17:21;10.90;99.90
10046;DHT22;5063;50.878;4.742;2022-12-26T05:20:08;10.90;99.90
10046;DHT22;5063;50.878;4.742;2022-12-26T05:22:53;10.90;99.90
10046;DHT22;5063;50.878;4.742;2022-12-26T05:25:41;10.90;99.90
10046;DHT22;5063;50.878;4.742;2022-12-26T05:28:27;10.90;99.90
10046;DHT22;5063;50.878;4.742;2022-12-26T05:31:09;11.00;99.90
10046;DHT22;5063;50.878;4.742;2022-12-26T05:33:35;10.90;99.90
10046;DHT22;5063;50.878;4.742;2022-12-26T05:36:22;10.80;99.90
10046;DHT22;5063;50.878;4.742;2022-12-26T05:38:49;10.90;99.90
10046;DHT22;5063;50.878;4.742;2022-12-26T05:41:15;10.90;99.90
10046;DHT22;5063;50.878;4.742;2022-12-26T05:43:41;10.90;99.90
10046;DHT22;5063;50.878;4.742;2022-12-26T05:46:06;11.00;99.90
10046;DHT22;5063;50.878;4.742;2022-12-26T05:48:32;11.00;99.90
10046;DHT22;5063;50.878;4.742;2022-12-26T05:51:02;11.10;99.90
10046;DHT22;5063;50.878;4.742;2022-12-26T05:53:29;11.20;99.90
10046;DHT22;5063;50.878;4.742;2022-12-26T05:56:01;11.20;99.90
10046;DHT22;5063;50.878;4.742;2022-12-26T05:58:27;11.30;99.90
10046;DHT22;5063;50.878;4.742;2022-12-26T06:01:06;11.40;99.90
10046;DHT22;5063;50.878;4.742;2022-12-26T06:03:32;11.30;99.90
10046;DHT22;5063;50.878;4.742;2022-12-26T06:05:58;11.40;99.90
10046;DHT22;5063;50.878;4.742;2022-12-26T06:08:24;11.40;99.90
10046;DHT22;5063;50.878;4.742;2022-12-26T06:10:50;11.30;99.90
10046;DHT22;5063;50.878;4.742;2022-12-26T06:13:15;11.30;99.90
10046;DHT22;5063;50.878;4.742;2022-12-26T06:15:41;11.20;99.90
10046;DHT22;5063;50.878;4.742;2022-12-26T06:18:07;11.10;99.90
10046;DHT22;5063;50.878;4.742;2022-12-26T06:20:33;11.10;99.90
10046;DHT22;5063;50.878;4.742;2022-12-26T06:22:58;11.00;99.90
10046;DHT22;5063;50.878;4.742;2022-12-26T06:25:24;11.00;99.90
10046;DHT22;5063;50.878;4.742;2022-12-26T06:27:50;11.00;99.90
10046;DHT22;5063;50.878;4.742;2022-12-26T06:30:16;11.00;99.90
10046;DHT22;5063;50.878;4.742;2022-12-26T06:32:41;11.10;99.90
10046;DHT22;5063;50.878;4.742;2022-12-26T06:35:07;11.20;99.90
10046;DHT22;5063;50.878;4.742;2022-12-26T06:37:33;11.20;99.90
10046;DHT22;5063;50.878;4.742;2022-12-26T06:39:58;11.30;99.90
10046;DHT22;5063;50.878;4.742;2022-12-26T06:42:24;11.30;99.90
10046;DHT22;5063;50.878;4.742;2022-12-26T06:44:50;11.30;99.90
10046;DHT22;5063;50.878;4.742;2022-12-26T06:47:16;11.30;99.90
10046;DHT22;5063;50.878;4.742;2022-12-26T06:49:41;11.20;99.90
10046;DHT22;5063;50.878;4.742;2022-12-26T06:52:07;11.10;99.90
10046;DHT22;5063;50.878;4.742;2022-12-26T06:54:33;11.10;99.90
10046;DHT22;5063;50.878;4.742;2022-12-26T06:56:59;11.10;99.90
10046;DHT22;5063;50.878;4.742;2022-12-26T06:59:25;11.10;99.90
10046;DHT22;5063;50.878;4.742;2022-12-26T07:01:51;11.20;99.90
10046;DHT22;5063;50.878;4.742;2022-12-26T07:04:16;11.20;99.90
10046;DHT22;5063;50.878;4.742;2022-12-26T07:06:42;11.20;99.90
10046;DHT22;5063;50.878;4.742;2022-12-26T07:09:11;11.30;99.90
10046;DHT22;5063;50.878;4.742;2022-12-26T07:11:41;11.30;99.90
10046;DHT22;5063;50.878;4.742;2022-12-26T07:14:07;11.30;99.90
10046;DHT22;5063;50.878;4.742;2022-12-26T07:16:34;11.30;99.90
10046;DHT22;5063;50.878;4.742;2022-12-26T07:19:00;11.40;99.90
10046;DHT22;5063;50.878;4.742;2022-12-26T07:21:26;11.40;99.90
10046;DHT22;5063;50.878;4.742;2022-12-26T07:23:53;11.40;99.90
10046;DHT22;5063;50.878;4.742;2022-12-26T07:26:19;11.40;99.90
10046;DHT22;5063;50.878;4.742;2022-12-26T07:28:46;11.40;99.90
10046;DHT22;5063;50.878;4.742;2022-12-26T07:31:18;11.40;99.90
10046;DHT22;5063;50.878;4.742;2022-12-26T07:33:48;11.40;99.90
10046;DHT22;5063;50.878;4.742;2022-12-26T07:36:14;11.40;99.90
10046;DHT22;5063;50.878;4.742;2022-12-26T07:38:40;11.50;99.90
10046;DHT22;5063;50.878;4.742;2022-12-26T07:41:06;11.50;99.90
10046;DHT22;5063;50.878;4.742;2022-12-26T07:43:50;11.60;99.90
10046;DHT22;5063;50.878;4.742;2022-12-26T07:46:17;11.60;99.90
10046;DHT22;5063;50.878;4.742;2022-12-26T07:48:43;11.50;99.90
10046;DHT22;5063;50.878;4.742;2022-12-26T07:51:09;11.50;99.90
10046;DHT22;5063;50.878;4.742;2022-12-26T07:53:35;11.60;99.90
10046;DHT22;5063;50.878;4.742;2022-12-26T07:56:01;11.60;99.90
10046;DHT22;5063;50.878;4.742;2022-12-26T07:58:26;11.50;99.90
10046;DHT22;5063;50.878;4.742;2022-12-26T08:00:52;11.40;99.90
10046;DHT22;5063;50.878;4.742;2022-12-26T08:03:18;11.40;99.90
10046;DHT22;5063;50.878;4.742;2022-12-26T08:05:45;11.40;99.90
10046;DHT22;5063;50.878;4.742;2022-12-26T08:08:11;11.40;99.90
10046;DHT22;5063;50.878;4.742;2022-12-26T08:10:37;11.30;99.90
10046;DHT22;5063;50.878;4.742;2022-12-26T08:13:03;11.30;99.90
10046;DHT22;5063;50.878;4.742;2022-12-26T08:15:28;11.30;99.90
10046;DHT22;5063;50.878;4.742;2022-12-26T08:17:54;11.30;99.90
10046;DHT22;5063;50.878;4.742;2022-12-26T08:20:20;11.20;99.90
10046;DHT22;5063;50.878;4.742;2022-12-26T08:22:46;11.20;99.90
10046;DHT22;5063;50.878;4.742;2022-12-26T08:25:11;11.10;99.90
10046;DHT22;5063;50.878;4.742;2022-12-26T08:27:37;11.20;99.90
10046;DHT22;5063;50.878;4.742;2022-12-26T08:30:03;11.30;99.90
10046;DHT22;5063;50.878;4.742;2022-12-26T08:32:29;11.40;99.90
10046;DHT22;5063;50.878;4.742;2022-12-26T08:34:55;11.50;99.90
10046;DHT22;5063;50.878;4.742;2022-12-26T08:37:21;11.50;99.90
10046;DHT22;5063;50.878;4.742;2022-12-26T08:39:49;11.60;99.90
10046;DHT22;5063;50.878;4.742;2022-12-26T08:42:17;11.60;99.90
10046;DHT22;5063;50.878;4.742;2022-12-26T08:44:43;11.70;99.90
10046;DHT22;5063;50.878;4.742;2022-12-26T08:47:09;11.80;99.90
10046;DHT22;5063;50.878;4.742;2022-12-26T08:49:35;11.70;99.90
10046;DHT22;5063;50.878;4.742;2022-12-26T08:52:00;11.50;99.90
10046;DHT22;5063;50.878;4.742;2022-12-26T08:54:26;11.50;99.90
10046;DHT22;5063;50.878;4.742;2022-12-26T08:56:52;11.50;99.90
10046;DHT22;5063;50.878;4.742;2022-12-26T08:59:18;11.50;99.90
10046;DHT22;5063;50.878;4.742;2022-12-26T09:01:43;11.70;99.90
10046;DHT22;5063;50.878;4.742;2022-12-26T09:04:09;11.70;99.90
10046;DHT22;5063;50.878;4.742;2022-12-26T09:06:36;11.70;99.90
10046;DHT22;5063;50.878;4.742;2022-12-26T09:09:03;11.70;99.90
10046;DHT22;5063;50.878;4.742;2022-12-26T09:11:29;11.70;99.90
10046;DHT22;5063;50.878;4.742;2022-12-26T09:13:57;11.80;99.90
10046;DHT22;5063;50.878;4.742;2022-12-26T09:16:33;11.80;99.90
10046;DHT22;5063;50.878;4.742;2022-12-26T09:19:02;11.80;99.90
10046;DHT22;5063;50.878;4.742;2022-12-26T09:21:29;11.90;99.90
10046;DHT22;5063;50.878;4.742;2022-12-26T09:23:59;11.90;99.90
10046;DHT22;5063;50.878;4.742;2022-12-26T09:26:26;12.00;99.90
10046;DHT22;5063;50.878;4.742;2022-12-26T09:28:52;12.10;99.90
10046;DHT22;5063;50.878;4.742;2022-12-26T09:31:21;12.10;99.90
10046;DHT22;5063;50.878;4.742;2022-12-26T09:33:47;12.10;99.90
10046;DHT22;5063;50.878;4.742;2022-12-26T09:36:19;12.20;99.90
10046;DHT22;5063;50.878;4.742;2022-12-26T09:38:46;12.20;99.90
10046;DHT22;5063;50.878;4.742;2022-12-26T09:49:54;12.50;99.90
10046;DHT22;5063;50.878;4.742;2022-12-26T09:55:04;12.30;99.90
10046;DHT22;5063;50.878;4.742;2022-12-26T09:57:43;12.30;99.90
10046;DHT22;5063;50.878;4.742;2022-12-26T10:00:18;12.30;99.90
10046;DHT22;5063;50.878;4.742;2022-12-26T10:02:48;12.40;99.90
10046;DHT22;5063;50.878;4.742;2022-12-26T10:05:16;12.40;99.90
10046;DHT22;5063;50.878;4.742;2022-12-26T10:07:47;12.40;99.90
10046;DHT22;5063;50.878;4.742;2022-12-26T10:10:27;12.40;99.90
10046;DHT22;5063;50.878;4.742;2022-12-26T10:15:56;12.50;99.90
10046;DHT22;5063;50.878;4.742;2022-12-26T10:18:51;12.50;99.90
10046;DHT22;5063;50.878;4.742;2022-12-26T10:26:39;12.30;99.90
10046;DHT22;5063;50.878;4.742;2022-12-26T10:31:45;12.30;99.90
10046;DHT22;5063;50.878;4.742;2022-12-26T10:34:34;12.30;99.90
10046;DHT22;5063;50.878;4.742;2022-12-26T10:37:30;12.20;99.90
10046;DHT22;5063;50.878;4.742;2022-12-26T10:42:51;12.50;99.90
10046;DHT22;5063;50.878;4.742;2022-12-26T10:45:34;12.60;99.90
10046;DHT22;5063;50.878;4.742;2022-12-26T10:48:02;12.60;99.90
10046;DHT22;5063;50.878;4.742;2022-12-26T10:50:32;12.60;99.90
10046;DHT22;5063;50.878;4.742;2022-12-26T10:53:04;12.50;99.90
10046;DHT22;5063;50.878;4.742;2022-12-26T10:55:33;12.40;99.90
10046;DHT22;5063;50.878;4.742;2022-12-26T10:58:05;12.30;99.90
10046;DHT22;5063;50.878;4.742;2022-12-26T11:00:36;12.30;99.90
10046;DHT22;5063;50.878;4.742;2022-12-26T11:05:27;12.20;99.90
10046;DHT22;5063;50.878;4.742;2022-12-26T11:07:56;12.30;99.90
10046;DHT22;5063;50.878;4.742;2022-12-26T11:10:29;12.30;99.90
10046;DHT22;5063;50.878;4.742;2022-12-26T11:13:02;12.40;99.90
10046;DHT22;5063;50.878;4.742;2022-12-26T11:15:45;12.30;99.90
10046;DHT22;5063;50.878;4.742;2022-12-26T11:18:31;12.10;99.90
10046;DHT22;5063;50.878;4.742;2022-12-26T11:23:46;12.10;99.90
10046;DHT22;5063;50.878;4.742;2022-12-26T11:26:26;12.20;99.90
10046;DHT22;5063;50.878;4.742;2022-12-26T11:29:18;12.10;99.90
10046;DHT22;5063;50.878;4.742;2022-12-26T11:31:58;12.10;99.90
10046;DHT22;5063;50.878;4.742;2022-12-26T11:34:34;12.10;99.90
10046;DHT22;5063;50.878;4.742;2022-12-26T11:37:03;11.90;99.90
10046;DHT22;5063;50.878;4.742;2022-12-26T11:39:33;11.90;99.90
10046;DHT22;5063;50.878;4.742;2022-12-26T11:41:59;11.70;99.90
10046;DHT22;5063;50.878;4.742;2022-12-26T11:44:34;11.40;99.90
10046;DHT22;5063;50.878;4.742;2022-12-26T11:52:41;11.00;99.90
10046;DHT22;5063;50.878;4.742;2022-12-26T11:58:14;10.50;99.90
10046;DHT22;5063;50.878;4.742;2022-12-26T12:03:19;10.40;99.90
10046;DHT22;5063;50.878;4.742;2022-12-26T12:06:17;10.60;99.90
10046;DHT22;5063;50.878;4.742;2022-12-26T12:12:19;10.70;99.90
10046;DHT22;5063;50.878;4.742;2022-12-26T12:33:49;11.10;99.90
10046;DHT22;5063;50.878;4.742;2022-12-26T12:39:19;11.20;99.90
10046;DHT22;5063;50.878;4.742;2022-12-26T12:47:13;11.20;99.90
10046;DHT22;5063;50.878;4.742;2022-12-26T12:52:39;10.70;99.90
10046;DHT22;5063;50.878;4.742;2022-12-26T13:00:58;10.40;99.90
10046;DHT22;5063;50.878;4.742;2022-12-26T13:04:00;10.50;99.90
10046;DHT22;5063;50.878;4.742;2022-12-26T13:06:34;10.30;99.90
10046;DHT22;5063;50.878;4.742;2022-12-26T13:09:14;10.40;99.90
10046;DHT22;5063;50.878;4.742;2022-12-26T13:11:45;10.50;99.90
10046;DHT22;5063;50.878;4.742;2022-12-26T13:14:18;10.30;99.90
10046;DHT22;5063;50.878;4.742;2022-12-26T13:17:16;10.30;99.90
10046;DHT22;5063;50.878;4.742;2022-12-26T13:19:55;10.50;99.90
10046;DHT22;5063;50.878;4.742;2022-12-26T13:22:41;10.50;99.90
10046;DHT22;5063;50.878;4.742;2022-12-26T13:25:52;10.40;99.90
10046;DHT22;5063;50.878;4.742;2022-12-26T13:28:27;10.40;99.90
10046;DHT22;5063;50.878;4.742;2022-12-26T13:30:54;10.30;99.90
10046;DHT22;5063;50.878;4.742;2022-12-26T13:33:21;10.30;99.90
10046;DHT22;5063;50.878;4.742;2022-12-26T13:35:53;10.00;99.90
10046;DHT22;5063;50.878;4.742;2022-12-26T13:38:20;10.30;99.90
10046;DHT22;5063;50.878;4.742;2022-12-26T13:40:57;10.40;99.90
10046;DHT22;5063;50.878;4.742;2022-12-26T13:44:06;10.30;99.90
10046;DHT22;5063;50.878;4.742;2022-12-26T13:52:43;10.30;99.90
10046;DHT22;5063;50.878;4.742;2022-12-26T14:00:20;9.80;99.90
10046;DHT22;5063;50.878;4.742;2022-12-26T14:08:33;9.50;99.90
10046;DHT22;5063;50.878;4.742;2022-12-26T14:11:23;9.30;99.90
10046;DHT22;5063;50.878;4.742;2022-12-26T14:25:33;9.60;99.90
10046;DHT22;5063;50.878;4.742;2022-12-26T14:28:10;9.40;99.90
10046;DHT22;5063;50.878;4.742;2022-12-26T14:33:26;9.20;99.90
10046;DHT22;5063;50.878;4.742;2022-12-26T14:41:15;9.30;99.90
10046;DHT22;5063;50.878;4.742;2022-12-26T14:51:48;9.40;99.90
10046;DHT22;5063;50.878;4.742;2022-12-26T14:56:44;9.00;99.90
10046;DHT22;5063;50.878;4.742;2022-12-26T14:59:32;8.90;99.90
10046;DHT22;5063;50.878;4.742;2022-12-26T15:04:50;8.70;99.90
10046;DHT22;5063;50.878;4.742;2022-12-26T15:12:54;8.50;99.90
10046;DHT22;5063;50.878;4.742;2022-12-26T15:15:31;8.30;99.90
10046;DHT22;5063;50.878;4.742;2022-12-26T15:42:11;7.00;99.90
10046;DHT22;5063;50.878;4.742;2022-12-26T16:00:56;6.50;99.90
10046;DHT22;5063;50.878;4.742;2022-12-26T16:03:45;6.50;99.90
10046;DHT22;5063;50.878;4.742;2022-12-26T16:09:12;6.40;99.90
10046;DHT22;5063;50.878;4.742;2022-12-26T16:11:57;6.30;99.90
10046;DHT22;5063;50.878;4.742;2022-12-26T16:14:37;6.30;99.90
10046;DHT22;5063;50.878;4.742;2022-12-26T16:17:19;6.30;99.90
10046;DHT22;5063;50.878;4.742;2022-12-26T16:19:49;6.20;99.90
10046;DHT22;5063;50.878;4.742;2022-12-26T16:22:21;6.10;99.90
10046;DHT22;5063;50.878;4.742;2022-12-26T16:25:07;6.20;99.90
10046;DHT22;5063;50.878;4.742;2022-12-26T16:27:35;6.00;99.90
10046;DHT22;5063;50.878;4.742;2022-12-26T16:30:05;6.00;99.90
10046;DHT22;5063;50.878;4.742;2022-12-26T16:32:37;5.90;99.90
10046;DHT22;5063;50.878;4.742;2022-12-26T16:35:05;5.80;99.90
10046;DHT22;5063;50.878;4.742;2022-12-26T16:37:31;5.80;99.90
10046;DHT22;5063;50.878;4.742;2022-12-26T16:40:28;5.80;99.90
10046;DHT22;5063;50.878;4.742;2022-12-26T16:45:25;5.40;99.90
10046;DHT22;5063;50.878;4.742;2022-12-26T16:47:53;5.50;99.90
10046;DHT22;5063;50.878;4.742;2022-12-26T16:50:26;5.50;99.90
10046;DHT22;5063;50.878;4.742;2022-12-26T16:53:11;5.20;99.90
10046;DHT22;5063;50.878;4.742;2022-12-26T17:03:28;5.30;99.90
10046;DHT22;5063;50.878;4.742;2022-12-26T17:05:57;5.40;99.90
10046;DHT22;5063;50.878;4.742;2022-12-26T17:08:23;5.30;99.90
10046;DHT22;5063;50.878;4.742;2022-12-26T17:10:49;5.20;99.90
10046;DHT22;5063;50.878;4.742;2022-12-26T17:13:25;5.20;99.90
10046;DHT22;5063;50.878;4.742;2022-12-26T17:15:55;5.30;99.90
10046;DHT22;5063;50.878;4.742;2022-12-26T17:18:30;4.90;99.90
10046;DHT22;5063;50.878;4.742;2022-12-26T17:26:28;5.20;99.90
10046;DHT22;5063;50.878;4.742;2022-12-26T17:28:54;5.20;99.90
10046;DHT22;5063;50.878;4.742;2022-12-26T17:31:43;5.20;99.90
10046;DHT22;5063;50.878;4.742;2022-12-26T17:34:23;5.20;99.90
10046;DHT22;5063;50.878;4.742;2022-12-26T17:36:49;5.00;99.90
10046;DHT22;5063;50.878;4.742;2022-12-26T17:39:24;5.10;99.90
10046;DHT22;5063;50.878;4.742;2022-12-26T17:41:55;5.20;99.90
10046;DHT22;5063;50.878;4.742;2022-12-26T17:44:39;5.20;99.90
10046;DHT22;5063;50.878;4.742;2022-12-26T17:47:26;5.00;99.90
10046;DHT22;5063;50.878;4.742;2022-12-26T17:49:54;4.90;99.90
10046;DHT22;5063;50.878;4.742;2022-12-26T17:52:25;4.90;99.90
10046;DHT22;5063;50.878;4.742;2022-12-26T17:54:52;4.90;99.90
10046;DHT22;5063;50.878;4.742;2022-12-26T17:57:21;5.00;99.90
10046;DHT22;5063;50.878;4.742;2022-12-26T17:59:48;4.90;99.90
10046;DHT22;5063;50.878;4.742;2022-12-26T18:02:14;4.90;99.90
10046;DHT22;5063;50.878;4.742;2022-12-26T18:04:40;4.80;99.90
10046;DHT22;5063;50.878;4.742;2022-12-26T18:07:07;5.00;99.90
10046;DHT22;5063;50.878;4.742;2022-12-26T18:09:34;4.90;99.90
10046;DHT22;5063;50.878;4.742;2022-12-26T18:12:02;4.90;99.90
10046;DHT22;5063;50.878;4.742;2022-12-26T18:14:28;4.90;99.90
10046;DHT22;5063;50.878;4.742;2022-12-26T18:16:53;4.80;99.90
10046;DHT22;5063;50.878;4.742;2022-12-26T18:19:19;4.90;99.90
10046;DHT22;5063;50.878;4.742;2022-12-26T18:21:45;4.90;99.90
10046;DHT22;5063;50.878;4.742;2022-12-26T18:24:11;4.90;99.90
10046;DHT22;5063;50.878;4.742;2022-12-26T18:26:38;4.90;99.90
10046;DHT22;5063;50.878;4.742;2022-12-26T18:29:04;5.30;99.90
10046;DHT22;5063;50.878;4.742;2022-12-26T18:31:30;5.10;99.90
10046;DHT22;5063;50.878;4.742;2022-12-26T18:33:56;5.20;99.90
10046;DHT22;5063;50.878;4.742;2022-12-26T18:36:26;5.40;99.90
10046;DHT22;5063;50.878;4.742;2022-12-26T18:38:53;5.40;99.90
10046;DHT22;5063;50.878;4.742;2022-12-26T18:41:19;5.40;99.90
10046;DHT22;5063;50.878;4.742;2022-12-26T18:43:46;5.40;99.90
10046;DHT22;5063;50.878;4.742;2022-12-26T18:48:41;5.20;99.90
10046;DHT22;5063;50.878;4.742;2022-12-26T18:51:07;5.20;99.90
10046;DHT22;5063;50.878;4.742;2022-12-26T18:53:33;5.10;99.90
10046;DHT22;5063;50.878;4.742;2022-12-26T18:55:59;5.00;99.90
10046;DHT22;5063;50.878;4.742;2022-12-26T18:58:25;4.90;99.90
10046;DHT22;5063;50.878;4.742;2022-12-26T19:00:50;4.80;99.90
10046;DHT22;5063;50.878;4.742;2022-12-26T19:03:16;5.00;99.90
10046;DHT22;5063;50.878;4.742;2022-12-26T19:05:42;4.80;99.90
10046;DHT22;5063;50.878;4.742;2022-12-26T19:08:09;4.80;99.90
10046;DHT22;5063;50.878;4.742;2022-12-26T19:10:35;4.90;99.90
10046;DHT22;5063;50.878;4.742;2022-12-26T19:13:02;4.80;99.90
10046;DHT22;5063;50.878;4.742;2022-12-26T19:15:32;5.00;99.90
10046;DHT22;5063;50.878;4.742;2022-12-26T19:17:59;4.80;99.90
10046;DHT22;5063;50.878;4.742;2022-12-26T19:20:26;4.80;99.90
10046;DHT22;5063;50.878;4.742;2022-12-26T19:22:53;4.80;99.90
10046;DHT22;5063;50.878;4.742;2022-12-26T19:25:21;4.70;99.90
10046;DHT22;5063;50.878;4.742;2022-12-26T19:27:47;4.70;99.90
10046;DHT22;5063;50.878;4.742;2022-12-26T19:30:14;4.80;99.90
10046;DHT22;5063;50.878;4.742;2022-12-26T19:32:41;4.70;99.90
10046;DHT22;5063;50.878;4.742;2022-12-26T19:35:08;4.90;99.90
10046;DHT22;5063;50.878;4.742;2022-12-26T19:37:34;5.00;99.90
10046;DHT22;5063;50.878;4.742;2022-12-26T19:40:01;4.70;99.90
10046;DHT22;5063;50.878;4.742;2022-12-26T19:42:27;4.80;99.90
10046;DHT22;5063;50.878;4.742;2022-12-26T19:44:53;4.80;99.90
10046;DHT22;5063;50.878;4.742;2022-12-26T19:47:18;4.80;99.90
10046;DHT22;5063;50.878;4.742;2022-12-26T19:49:44;4.70;99.90
10046;DHT22;5063;50.878;4.742;2022-12-26T19:52:11;4.60;99.90
10046;DHT22;5063;50.878;4.742;2022-12-26T19:54:37;4.60;99.90
10046;DHT22;5063;50.878;4.742;2022-12-26T19:57:03;4.70;99.90
10046;DHT22;5063;50.878;4.742;2022-12-26T19:59:28;4.70;99.90
10046;DHT22;5063;50.878;4.742;2022-12-26T20:01:54;4.60;99.90
10046;DHT22;5063;50.878;4.742;2022-12-26T20:04:20;4.80;99.90
10046;DHT22;5063;50.878;4.742;2022-12-26T20:06:46;4.60;99.90
10046;DHT22;5063;50.878;4.742;2022-12-26T20:09:15;4.60;99.90
10046;DHT22;5063;50.878;4.742;2022-12-26T20:11:44;4.50;99.90
10046;DHT22;5063;50.878;4.742;2022-12-26T20:14:12;4.60;99.90
10046;DHT22;5063;50.878;4.742;2022-12-26T20:16:39;4.60;99.90
10046;DHT22;5063;50.878;4.742;2022-12-26T20:19:04;4.60;99.90